Time;durP1;ratioP1;P1;durP2;ratioP2;P2;SDS_P1;SDS_P2;PMS_P1;PMS_P2;Temp;Humidity;BMP_temperature;BMP_pressure;BME280_temperature;BME280_humidity;BME280_pressure;Samples;Min_cycle;Max_cycle;Signal;HPM_P1;HPM_P2
2022/07/24 00:00:26;;;;;;;2.47;1.30;;;23.10;63.50;;;;;;5052973;28;20051;-67
2022/07/24 00:02:51;;;;;;;1.92;1.30;;;23.10;63.50;;;;;;5051996;28;20053;-67
2022/07/24 00:05:17;;;;;;;1.90;1.05;;;23.10;63.50;;;;;;5052729;28;20048;-67
2022/07/24 00:07:43;;;;;;;2.90;1.20;;;23.10;63.50;;;;;;5052574;28;20075;-67
2022/07/24 00:10:09;;;;;;;2.97;1.08;;;23.10;63.40;;;;;;5051978;28;20116;-67
2022/07/24 00:12:35;;;;;;;2.13;1.00;;;23.10;63.40;;;;;;5051372;28;20133;-67
2022/07/24 00:15:00;;;;;;;2.47;1.20;;;23.10;63.40;;;;;;5052339;28;20056;-68
2022/07/24 00:17:26;;;;;;;2.65;1.20;;;23.10;63.40;;;;;;5050716;28;20124;-68
2022/07/24 00:19:51;;;;;;;3.38;1.13;;;23.10;63.40;;;;;;5051178;28;20048;-68
2022/07/24 00:22:17;;;;;;;2.15;1.25;;;23.00;63.40;;;;;;5051523;28;20045;-68
2022/07/24 00:24:42;;;;;;;1.45;0.88;;;23.10;63.40;;;;;;5050350;28;20045;-67
2022/07/24 00:27:08;;;;;;;2.58;1.30;;;23.00;63.50;;;;;;5052739;28;20045;-67
2022/07/24 00:29:33;;;;;;;2.03;1.02;;;23.00;63.40;;;;;;5052272;28;20060;-67
2022/07/24 00:31:59;;;;;;;2.63;1.40;;;23.00;63.50;;;;;;5051634;28;20041;-68
2022/07/24 00:34:24;;;;;;;2.13;1.25;;;23.00;63.50;;;;;;5052694;28;20044;-67
2022/07/24 00:36:50;;;;;;;1.50;1.08;;;23.00;63.40;;;;;;5052117;28;20029;-68
2022/07/24 00:39:16;;;;;;;1.92;1.00;;;23.00;63.50;;;;;;5052052;28;20508;-67
2022/07/24 00:41:41;;;;;;;1.77;1.13;;;23.00;63.50;;;;;;5052644;28;20045;-67
2022/07/24 00:44:12;;;;;;;4.18;1.40;;;23.00;63.50;;;;;;5050301;28;20080;-68
2022/07/24 00:46:39;;;;;;;2.05;1.20;;;23.00;63.50;;;;;;5051293;28;20057;-68
2022/07/24 00:49:06;;;;;;;2.00;1.45;;;23.00;63.50;;;;;;5052214;28;20533;-68
2022/07/24 00:51:31;;;;;;;1.70;1.10;;;23.00;63.50;;;;;;5051500;28;20167;-67
2022/07/24 00:53:57;;;;;;;1.85;1.02;;;23.00;63.50;;;;;;5055845;28;20053;-67
2022/07/24 00:56:22;;;;;;;2.53;1.10;;;23.00;63.50;;;;;;5055235;28;20044;-68
2022/07/24 00:58:48;;;;;;;2.00;1.10;;;23.00;63.50;;;;;;5055303;28;20120;-68
2022/07/24 01:01:14;;;;;;;2.28;1.30;;;23.00;63.50;;;;;;5054818;28;20037;-67
2022/07/24 01:03:40;;;;;;;1.85;1.33;;;23.00;63.50;;;;;;5056241;28;20044;-67
2022/07/24 01:06:06;;;;;;;1.70;1.17;;;23.00;63.50;;;;;;5055125;28;20052;-68
2022/07/24 01:08:32;;;;;;;3.08;1.35;;;23.00;63.50;;;;;;5056171;28;20048;-68
2022/07/24 01:10:58;;;;;;;2.05;1.10;;;23.00;63.50;;;;;;5054545;28;20080;-67
2022/07/24 01:13:23;;;;;;;2.08;1.20;;;23.00;63.50;;;;;;5053896;28;20079;-67
2022/07/24 01:15:49;;;;;;;3.85;1.25;;;23.00;63.50;;;;;;5054297;28;20044;-68
2022/07/24 01:18:14;;;;;;;2.30;1.35;;;23.00;63.70;;;;;;5054698;28;20045;-67
2022/07/24 01:20:40;;;;;;;3.15;1.52;;;23.00;63.50;;;;;;5053743;28;20128;-67
2022/07/24 01:23:05;;;;;;;2.33;1.33;;;23.00;63.50;;;;;;5054326;28;20045;-67
2022/07/24 01:25:31;;;;;;;1.83;1.13;;;23.00;63.50;;;;;;5055728;28;20057;-67
2022/07/24 01:27:57;;;;;;;1.83;1.23;;;23.00;63.50;;;;;;5054591;28;20041;-67
2022/07/24 01:30:23;;;;;;;1.70;1.20;;;22.90;63.40;;;;;;5055532;28;20056;-67
2022/07/24 01:32:48;;;;;;;2.08;1.10;;;22.90;63.40;;;;;;5055459;28;20045;-67
2022/07/24 01:35:14;;;;;;;1.95;1.40;;;22.90;63.40;;;;;;5054987;28;20051;-67
2022/07/24 01:37:39;;;;;;;1.80;1.13;;;23.00;63.50;;;;;;5054187;28;20048;-68
2022/07/24 01:40:05;;;;;;;2.75;1.30;;;23.00;63.50;;;;;;5055165;28;20052;-67
2022/07/24 01:42:31;;;;;;;2.00;1.20;;;22.90;63.40;;;;;;5054884;28;20037;-67
2022/07/24 01:44:56;;;;;;;2.63;1.27;;;22.90;63.50;;;;;;5054880;28;20048;-67
2022/07/24 01:47:22;;;;;;;2.20;1.20;;;22.90;63.40;;;;;;5054708;28;20041;-67
2022/07/24 01:49:47;;;;;;;1.52;1.10;;;22.90;63.40;;;;;;5053674;28;20098;-68
2022/07/24 01:52:13;;;;;;;2.28;1.10;;;22.90;63.40;;;;;;5054163;28;20086;-67
2022/07/24 01:54:39;;;;;;;2.10;1.20;;;22.90;63.40;;;;;;5054546;28;20041;-67
2022/07/24 01:57:04;;;;;;;3.00;1.10;;;22.90;63.40;;;;;;5055149;28;20037;-67
2022/07/24 01:59:30;;;;;;;2.85;1.15;;;22.90;63.40;;;;;;5054978;28;20422;-68
2022/07/24 02:01:55;;;;;;;2.08;1.30;;;22.90;63.40;;;;;;5053192;28;20064;-67
2022/07/24 02:04:21;;;;;;;2.42;1.30;;;22.90;63.40;;;;;;5053479;28;20492;-67
2022/07/24 02:06:46;;;;;;;1.73;1.10;;;22.90;63.40;;;;;;5054485;28;20041;-67
2022/07/24 02:09:12;;;;;;;1.52;0.95;;;22.90;63.40;;;;;;5054339;28;20045;-68
2022/07/24 02:11:37;;;;;;;1.50;1.00;;;22.80;63.40;;;;;;5054725;28;20037;-68
2022/07/24 02:14:03;;;;;;;2.78;1.42;;;22.90;63.40;;;;;;5053365;28;20069;-67
2022/07/24 02:16:29;;;;;;;1.90;1.42;;;22.90;63.40;;;;;;5053933;28;20136;-67
2022/07/24 02:18:54;;;;;;;1.67;1.00;;;22.80;63.40;;;;;;5054624;28;20103;-67
2022/07/24 02:21:20;;;;;;;1.98;1.10;;;22.80;63.40;;;;;;5054807;28;20077;-67
2022/07/24 02:23:45;;;;;;;1.30;1.00;;;22.80;63.40;;;;;;5053813;28;20084;-67
2022/07/24 02:26:11;;;;;;;2.80;1.38;;;22.90;63.40;;;;;;5053092;28;20081;-67
2022/07/24 02:28:36;;;;;;;1.83;1.13;;;22.80;63.40;;;;;;5053301;28;20068;-67
2022/07/24 02:31:02;;;;;;;2.83;1.30;;;22.80;63.40;;;;;;5052148;28;20068;-67
2022/07/24 02:33:27;;;;;;;1.60;1.13;;;22.80;63.40;;;;;;5053216;28;20045;-67
2022/07/24 02:35:53;;;;;;;1.85;1.30;;;22.80;63.40;;;;;;5054017;28;20045;-67
2022/07/24 02:38:19;;;;;;;2.05;1.30;;;22.80;63.40;;;;;;5052723;28;20132;-67
2022/07/24 02:40:44;;;;;;;1.60;1.17;;;22.80;63.40;;;;;;5054352;28;20041;-67
2022/07/24 02:43:10;;;;;;;1.65;1.10;;;22.80;63.40;;;;;;5054448;28;20033;-67
2022/07/24 02:45:36;;;;;;;2.20;1.70;;;22.80;63.40;;;;;;5052294;28;20122;-67
2022/07/24 02:48:01;;;;;;;2.63;1.00;;;22.80;63.40;;;;;;5054183;28;20098;-67
2022/07/24 02:50:32;;;;;;;2.65;1.20;;;22.80;63.40;;;;;;5052820;28;20041;-67
2022/07/24 02:52:58;;;;;;;3.17;1.50;;;22.80;63.40;;;;;;5054188;28;20044;-67
2022/07/24 02:55:24;;;;;;;2.45;1.23;;;22.80;63.40;;;;;;5053017;28;20131;-67
2022/07/24 02:57:49;;;;;;;1.98;1.20;;;22.80;63.40;;;;;;5053051;28;20852;-67
2022/07/24 03:00:16;;;;;;;2.40;1.27;;;22.80;63.40;;;;;;5053894;28;20045;-67
2022/07/24 03:02:42;;;;;;;1.83;1.23;;;22.80;63.40;;;;;;5052735;28;20044;-67
2022/07/24 03:05:08;;;;;;;1.85;1.30;;;22.80;63.40;;;;;;5052011;28;20049;-67
2022/07/24 03:07:33;;;;;;;1.77;0.93;;;22.80;63.40;;;;;;5053747;28;20435;-67
2022/07/24 03:09:59;;;;;;;1.90;1.05;;;22.80;63.40;;;;;;5053407;28;20489;-67
2022/07/24 03:12:24;;;;;;;2.05;1.25;;;22.80;63.40;;;;;;5053164;28;20052;-67
2022/07/24 03:14:50;;;;;;;2.33;1.17;;;22.80;63.40;;;;;;5053661;28;20044;-68
2022/07/24 03:17:15;;;;;;;2.08;1.20;;;22.80;63.40;;;;;;5052872;28;20124;-67
2022/07/24 03:19:41;;;;;;;2.10;1.20;;;22.80;63.40;;;;;;5051558;28;20131;-67
2022/07/24 03:22:07;;;;;;;2.40;1.30;;;22.80;63.40;;;;;;5053306;28;20112;-67
2022/07/24 03:24:32;;;;;;;2.38;1.10;;;22.80;63.40;;;;;;5053504;28;20044;-68
2022/07/24 03:26:59;;;;;;;1.98;1.23;;;22.80;63.40;;;;;;5051552;28;20057;-67
2022/07/24 03:29:24;;;;;;;2.47;1.42;;;22.80;63.40;;;;;;5052173;28;20511;-67
2022/07/24 03:31:50;;;;;;;2.08;1.33;;;22.80;63.40;;;;;;5052121;28;20041;-67
2022/07/24 03:34:15;;;;;;;2.58;1.20;;;22.80;63.40;;;;;;5051520;28;20052;-67
2022/07/24 03:36:41;;;;;;;1.48;1.00;;;22.80;63.50;;;;;;5053570;28;20041;-67
2022/07/24 03:39:06;;;;;;;1.90;1.33;;;22.70;63.40;;;;;;5053141;28;20045;-68
2022/07/24 03:41:32;;;;;;;1.70;1.20;;;22.80;63.40;;;;;;5052507;28;20033;-68
2022/07/24 03:43:57;;;;;;;2.47;1.23;;;22.80;63.40;;;;;;5051651;28;20474;-67
2022/07/24 03:46:23;;;;;;;1.48;1.10;;;22.70;63.40;;;;;;5053133;28;20037;-67
2022/07/24 03:48:49;;;;;;;1.60;1.23;;;22.70;63.40;;;;;;5052213;28;20132;-67
2022/07/24 03:51:14;;;;;;;1.30;0.90;;;22.70;63.40;;;;;;5052957;28;20090;-67
2022/07/24 03:53:40;;;;;;;3.10;1.30;;;22.70;63.40;;;;;;5053002;28;20087;-67
2022/07/24 03:56:09;;;;;;;1.35;1.00;;;22.70;63.40;;;;;;5052228;28;20045;-67
2022/07/24 03:58:34;;;;;;;1.88;1.30;;;22.70;63.40;;;;;;5052804;28;20539;-67
2022/07/24 04:01:00;;;;;;;1.25;0.90;;;22.70;63.40;;;;;;5051461;28;20037;-67
2022/07/24 04:03:25;;;;;;;1.30;0.90;;;22.70;63.40;;;;;;5051395;28;20037;-67
2022/07/24 04:05:51;;;;;;;1.95;1.20;;;22.70;63.40;;;;;;5050671;28;20048;-67
2022/07/24 04:08:16;;;;;;;2.28;1.13;;;22.70;63.40;;;;;;5050684;28;20118;-67
2022/07/24 04:10:42;;;;;;;2.53;1.40;;;22.70;63.50;;;;;;5051383;28;20045;-67
2022/07/24 04:13:08;;;;;;;1.38;1.10;;;22.70;63.40;;;;;;5052564;28;20099;-67
2022/07/24 04:15:33;;;;;;;2.03;1.20;;;22.70;63.40;;;;;;5052225;28;20041;-68
2022/07/24 04:17:59;;;;;;;1.55;1.10;;;22.70;63.50;;;;;;5052515;28;20436;-67
2022/07/24 04:20:24;;;;;;;2.22;1.33;;;22.70;63.50;;;;;;5052626;28;20041;-67
2022/07/24 04:22:50;;;;;;;1.45;0.93;;;22.70;63.50;;;;;;5051764;28;20080;-67
2022/07/24 04:25:15;;;;;;;1.83;1.20;;;22.70;63.50;;;;;;5052234;28;20060;-67
2022/07/24 04:27:42;;;;;;;1.80;1.10;;;22.70;63.50;;;;;;5050771;28;20045;-67
2022/07/24 04:30:09;;;;;;;1.25;0.90;;;22.70;63.50;;;;;;5050938;28;20123;-67
2022/07/24 04:32:34;;;;;;;1.55;1.10;;;22.70;63.50;;;;;;5052759;28;20095;-67
2022/07/24 04:35:00;;;;;;;1.60;1.27;;;22.70;63.50;;;;;;5052287;28;20044;-67
2022/07/24 04:37:25;;;;;;;1.85;1.25;;;22.70;63.50;;;;;;5051786;28;20049;-67
2022/07/24 04:39:51;;;;;;;1.23;0.90;;;22.70;63.50;;;;;;5052059;28;20089;-67
2022/07/24 04:42:16;;;;;;;1.98;1.00;;;22.70;63.50;;;;;;5052477;28;20132;-67
2022/07/24 04:44:42;;;;;;;1.40;1.00;;;22.70;63.50;;;;;;5051857;28;20120;-67
2022/07/24 04:47:07;;;;;;;1.50;1.10;;;22.70;63.50;;;;;;5052291;28;20127;-67
2022/07/24 04:49:33;;;;;;;1.80;1.17;;;22.70;63.50;;;;;;5051006;28;20549;-67
2022/07/24 04:51:59;;;;;;;1.88;1.20;;;22.70;63.60;;;;;;5051613;28;20094;-68
2022/07/24 04:54:24;;;;;;;1.75;1.38;;;22.70;63.50;;;;;;5052219;28;20075;-67
2022/07/24 04:56:50;;;;;;;1.30;1.02;;;22.70;63.50;;;;;;5050675;28;20053;-67
2022/07/24 04:59:15;;;;;;;1.63;1.20;;;22.60;63.50;;;;;;5050344;28;20064;-67
2022/07/24 05:01:41;;;;;;;1.63;1.23;;;22.70;63.60;;;;;;5051352;28;20041;-67
2022/07/24 05:04:06;;;;;;;1.67;1.00;;;22.70;63.50;;;;;;5050331;28;20400;-67
2022/07/24 05:06:32;;;;;;;3.13;1.40;;;22.60;63.50;;;;;;5051852;28;20128;-67
2022/07/24 05:08:57;;;;;;;1.38;1.08;;;22.70;63.50;;;;;;5051770;28;20083;-67
2022/07/24 05:11:23;;;;;;;2.00;1.40;;;22.60;63.40;;;;;;5049945;28;20128;-67
2022/07/24 05:13:49;;;;;;;1.45;1.00;;;22.60;63.40;;;;;;5051944;28;20396;-67
2022/07/24 05:16:14;;;;;;;2.00;1.05;;;22.70;63.40;;;;;;5052024;28;20469;-67
2022/07/24 05:18:40;;;;;;;3.15;1.20;;;22.70;63.50;;;;;;5050003;28;20045;-67
2022/07/24 05:21:05;;;;;;;1.65;1.10;;;22.70;63.50;;;;;;5051360;28;20060;-67
2022/07/24 05:23:31;;;;;;;1.70;1.25;;;22.70;63.50;;;;;;5050916;28;20098;-66
2022/07/24 05:25:57;;;;;;;2.33;1.20;;;22.70;63.60;;;;;;5049449;28;20411;-67
2022/07/24 05:28:22;;;;;;;1.60;1.15;;;22.70;63.60;;;;;;5052146;28;20045;-67
2022/07/24 05:30:48;;;;;;;2.63;1.20;;;22.70;63.60;;;;;;5050458;28;20132;-67
2022/07/24 05:33:13;;;;;;;2.83;1.20;;;22.70;63.70;;;;;;5050036;28;20044;-67
2022/07/24 05:35:39;;;;;;;1.67;1.23;;;22.70;63.60;;;;;;5052015;28;20120;-67
2022/07/24 05:38:04;;;;;;;2.25;1.30;;;22.70;63.70;;;;;;5051759;28;20430;-67
2022/07/24 05:40:30;;;;;;;1.27;1.08;;;22.70;63.70;;;;;;5052336;28;20041;-67
2022/07/24 05:42:55;;;;;;;2.15;1.00;;;22.70;63.80;;;;;;5055082;28;20155;-67
2022/07/24 05:45:21;;;;;;;1.90;1.13;;;22.70;63.70;;;;;;5054234;28;20072;-67
2022/07/24 05:47:47;;;;;;;1.92;1.05;;;22.70;63.70;;;;;;5053161;28;20127;-67
2022/07/24 05:50:13;;;;;;;1.90;1.10;;;22.70;63.70;;;;;;5055430;28;20045;-67
2022/07/24 05:52:39;;;;;;;1.25;0.93;;;22.70;63.70;;;;;;5055492;28;20052;-67
2022/07/24 05:55:05;;;;;;;1.95;1.20;;;22.70;63.80;;;;;;5054166;28;20412;-67
2022/07/24 05:57:31;;;;;;;1.80;1.05;;;22.70;63.80;;;;;;5054405;28;20195;-67
2022/07/24 05:59:56;;;;;;;2.10;1.38;;;22.70;63.90;;;;;;5055033;28;20487;-67
2022/07/24 06:02:22;;;;;;;2.10;1.38;;;22.70;63.80;;;;;;5054431;28;20056;-67
2022/07/24 06:04:47;;;;;;;1.55;1.27;;;22.70;63.80;;;;;;5054942;28;20086;-67
2022/07/24 06:07:13;;;;;;;1.90;1.10;;;22.70;63.80;;;;;;5053923;28;20397;-67
2022/07/24 06:09:38;;;;;;;1.63;1.20;;;22.70;63.80;;;;;;5052938;28;20485;-67
2022/07/24 06:12:05;;;;;;;1.70;1.10;;;22.70;63.80;;;;;;5054671;28;20053;-67
2022/07/24 06:14:31;;;;;;;2.65;1.33;;;22.70;63.80;;;;;;5054414;28;20045;-67
2022/07/24 06:16:56;;;;;;;2.30;1.20;;;22.70;63.80;;;;;;5053610;28;20045;-67
2022/07/24 06:19:22;;;;;;;1.80;1.20;;;22.80;63.90;;;;;;5053645;28;20045;-67
2022/07/24 06:21:47;;;;;;;1.95;1.20;;;22.70;63.80;;;;;;5053698;28;20049;-68
2022/07/24 06:24:13;;;;;;;2.40;1.38;;;22.80;63.90;;;;;;5054453;28;20052;-67
2022/07/24 06:26:38;;;;;;;2.53;1.30;;;22.80;63.90;;;;;;5054559;28;20097;-67
2022/07/24 06:29:04;;;;;;;4.13;1.40;;;22.80;64.00;;;;;;5053847;28;20045;-67
2022/07/24 06:31:29;;;;;;;2.05;1.17;;;22.80;64.00;;;;;;5054836;28;20052;-67
2022/07/24 06:33:55;;;;;;;2.10;1.40;;;22.80;64.00;;;;;;5054517;28;20041;-67
2022/07/24 06:36:20;;;;;;;3.05;1.40;;;22.80;64.00;;;;;;5053853;28;20063;-67
2022/07/24 06:38:46;;;;;;;3.58;1.75;;;22.80;64.00;;;;;;5054034;28;20045;-67
2022/07/24 06:41:11;;;;;;;3.42;2.00;;;22.80;63.90;;;;;;5054698;28;20048;-67
2022/07/24 06:43:37;;;;;;;4.60;2.20;;;22.80;63.90;;;;;;5053484;28;20041;-67
2022/07/24 06:46:03;;;;;;;5.05;2.55;;;22.80;63.80;;;;;;5054215;28;20148;-67
2022/07/24 06:48:29;;;;;;;4.32;2.58;;;22.80;63.70;;;;;;5054377;28;20072;-67
2022/07/24 06:50:55;;;;;;;5.85;2.70;;;22.80;63.60;;;;;;5051616;28;20048;-67
2022/07/24 06:53:20;;;;;;;3.85;2.80;;;22.80;63.50;;;;;;5054006;28;20040;-65
2022/07/24 06:55:47;;;;;;;5.32;3.55;;;22.80;63.40;;;;;;5054143;28;20048;-65
2022/07/24 06:58:12;;;;;;;6.95;4.28;;;22.80;63.10;;;;;;5053516;28;20045;-69
2022/07/24 07:00:38;;;;;;;6.35;4.68;;;22.80;63.00;;;;;;5052791;28;20043;-66
2022/07/24 07:03:05;;;;;;;8.52;5.45;;;22.70;62.70;;;;;;5053443;28;20484;-68
2022/07/24 07:05:31;;;;;;;10.68;5.13;;;22.70;62.60;;;;;;5053246;28;20045;-68
2022/07/24 07:07:56;;;;;;;8.38;4.75;;;22.70;62.60;;;;;;5053223;28;20045;-68
2022/07/24 07:10:23;;;;;;;8.43;4.85;;;22.70;62.70;;;;;;5054002;28;20128;-68
2022/07/24 07:12:48;;;;;;;7.72;4.63;;;22.70;62.80;;;;;;5052758;28;20128;-69
2022/07/24 07:15:14;;;;;;;9.23;3.95;;;22.70;63.10;;;;;;5053976;28;20087;-68
2022/07/24 07:17:40;;;;;;;7.30;4.70;;;22.70;63.00;;;;;;5053659;28;20037;-68
2022/07/24 07:20:06;;;;;;;8.52;5.03;;;22.70;63.00;;;;;;5051468;28;20045;-69
2022/07/24 07:22:32;;;;;;;10.43;4.85;;;22.70;63.10;;;;;;5052153;28;20037;-71
2022/07/24 07:24:57;;;;;;;9.45;5.20;;;22.70;63.00;;;;;;5063748;28;20067;-71
2022/07/24 07:27:23;;;;;;;9.55;5.95;;;22.70;63.00;;;;;;5072048;28;20511;-68
2022/07/24 07:29:48;;;;;;;7.63;5.60;;;22.70;62.80;;;;;;5072619;28;20472;-66
2022/07/24 07:32:14;;;;;;;11.00;6.43;;;22.70;62.80;;;;;;5071056;28;20127;-67
2022/07/24 07:34:40;;;;;;;11.18;7.10;;;22.70;62.80;;;;;;5071863;28;20111;-68
2022/07/24 07:37:05;;;;;;;13.68;6.38;;;22.70;62.80;;;;;;5071990;28;20397;-68
2022/07/24 07:39:31;;;;;;;9.73;6.70;;;22.70;62.80;;;;;;5070743;28;20427;-68
2022/07/24 07:41:57;;;;;;;12.18;7.03;;;22.70;62.80;;;;;;5071203;28;20133;-67
2022/07/24 07:44:22;;;;;;;10.48;7.10;;;22.70;62.80;;;;;;5071456;28;20471;-67
2022/07/24 07:46:48;;;;;;;10.52;7.28;;;22.70;63.00;;;;;;5071693;28;20069;-67
2022/07/24 07:49:13;;;;;;;12.43;7.90;;;22.70;63.10;;;;;;5072829;28;20040;-66
2022/07/24 07:51:39;;;;;;;14.00;7.80;;;22.70;63.40;;;;;;5071370;28;20051;-64
2022/07/24 07:54:04;;;;;;;10.88;7.78;;;22.70;63.00;;;;;;5072066;28;20037;-65
2022/07/24 07:56:31;;;;;;;13.48;8.13;;;22.70;63.00;;;;;;5077016;28;20040;-68
2022/07/24 07:58:57;;;;;;;15.13;9.32;;;22.70;63.10;;;;;;5092634;28;20044;-70
2022/07/24 08:01:22;;;;;;;11.88;8.50;;;22.80;63.10;;;;;;5092324;28;20051;-68
2022/07/24 08:03:48;;;;;;;12.63;8.25;;;22.80;63.00;;;;;;5092254;28;20032;-68
2022/07/24 08:06:13;;;;;;;13.15;8.07;;;22.70;63.00;;;;;;5092819;28;20495;-68
2022/07/24 08:08:39;;;;;;;13.88;8.23;;;22.80;63.10;;;;;;5092015;28;20146;-69
2022/07/24 08:11:05;;;;;;;11.43;8.75;;;22.80;63.20;;;;;;5075335;28;20044;-65
2022/07/24 08:13:30;;;;;;;11.85;8.65;;;22.80;63.20;;;;;;5070956;28;20051;-66
2022/07/24 08:15:56;;;;;;;17.67;8.13;;;22.80;63.20;;;;;;5071280;28;20079;-66
2022/07/24 08:18:21;;;;;;;11.00;7.10;;;22.80;63.20;;;;;;5072493;28;20040;-66
2022/07/24 08:20:47;;;;;;;11.10;7.18;;;22.80;63.20;;;;;;5072181;28;20036;-66
2022/07/24 08:23:13;;;;;;;10.73;7.07;;;22.80;63.20;;;;;;5070441;28;20052;-66
2022/07/24 08:25:38;;;;;;;9.57;6.53;;;22.80;63.20;;;;;;5072500;28;20052;-67
2022/07/24 08:28:04;;;;;;;8.10;5.55;;;22.90;63.20;;;;;;5072074;28;20044;-66
2022/07/24 08:30:29;;;;;;;10.40;6.28;;;22.90;63.20;;;;;;5071985;28;20087;-66
2022/07/24 08:32:55;;;;;;;9.15;5.88;;;22.90;63.20;;;;;;5070567;28;20170;-65
2022/07/24 08:35:23;;;;;;;8.57;6.03;;;22.90;63.20;;;;;;5071328;28;20072;-64
2022/07/24 08:37:48;;;;;;;9.80;6.13;;;22.90;63.30;;;;;;5071628;28;20123;-68
2022/07/24 08:40:14;;;;;;;11.07;6.03;;;23.00;63.50;;;;;;5072365;28;20178;-67
2022/07/24 08:42:39;;;;;;;9.55;6.93;;;23.00;63.50;;;;;;5053835;28;20068;-65
2022/07/24 08:45:06;;;;;;;12.10;7.00;;;23.00;63.60;;;;;;5070558;28;20127;-67
2022/07/24 08:47:34;;;;;;;11.95;6.78;;;23.00;64.10;;;;;;5072456;28;20067;-70
2022/07/24 08:50:01;;;;;;;14.18;7.60;;;23.00;63.50;;;;;;5070318;28;20373;-68
2022/07/24 08:52:27;;;;;;;11.83;7.60;;;23.00;63.50;;;;;;5070280;28;20115;-70
2022/07/24 08:54:53;;;;;;;12.32;7.68;;;23.00;63.50;;;;;;5071449;28;20443;-69
2022/07/24 08:57:18;;;;;;;11.07;7.15;;;23.00;63.50;;;;;;5070643;28;20434;-69
2022/07/24 08:59:44;;;;;;;14.25;7.63;;;23.10;63.40;;;;;;5070159;28;20072;-70
2022/07/24 09:02:09;;;;;;;10.93;7.85;;;23.10;63.30;;;;;;5070389;28;20394;-70
2022/07/24 09:04:37;;;;;;;12.50;7.65;;;23.10;63.20;;;;;;5069274;28;20119;-69
2022/07/24 09:07:08;;;;;;;9.82;7.00;;;23.10;63.10;;;;;;5070057;28;20072;-71
2022/07/24 09:09:34;;;;;;;13.80;7.53;;;23.10;62.90;;;;;;5071574;28;20064;-69
2022/07/24 09:12:12;;;;;;;10.93;6.65;;;23.10;62.70;;;;;;5070244;28;20488;-70
2022/07/24 09:14:39;;;;;;;9.02;6.00;;;23.20;62.40;;;;;;5070613;28;20036;-68
2022/07/24 09:17:06;;;;;;;8.23;5.97;;;23.20;62.10;;;;;;5073272;28;20040;-67
2022/07/24 09:19:45;;;;;;;11.10;6.13;;;23.20;61.80;;;;;;5073026;28;20385;-68
2022/07/24 09:22:17;;;;;;;11.50;5.97;;;23.20;61.60;;;;;;5059055;28;20051;-68
2022/07/24 09:24:42;;;;;;;9.68;6.15;;;23.20;61.40;;;;;;5072563;28;20067;-68
2022/07/24 09:27:08;;;;;;;8.07;5.55;;;23.20;61.40;;;;;;5074438;28;20044;-68
2022/07/24 09:29:35;;;;;;;6.88;4.50;;;23.20;61.20;;;;;;5073540;28;20032;-68
2022/07/24 09:32:01;;;;;;;9.10;5.30;;;23.20;61.20;;;;;;5056380;28;20040;-68
2022/07/24 09:34:28;;;;;;;6.78;4.65;;;23.20;61.10;;;;;;5073852;28;20076;-67
2022/07/24 09:36:59;;;;;;;7.70;5.00;;;23.30;61.00;;;;;;5074995;28;20123;-68
2022/07/24 09:39:25;;;;;;;9.13;4.88;;;23.30;60.80;;;;;;5073309;28;20051;-68
2022/07/24 09:41:52;;;;;;;8.65;4.47;;;23.30;60.70;;;;;;5074064;28;20040;-69
2022/07/24 09:44:17;;;;;;;9.07;4.97;;;23.30;60.50;;;;;;5074915;28;20042;-64
2022/07/24 09:46:48;;;;;;;8.52;4.43;;;23.30;60.50;;;;;;5074128;28;20040;-61
2022/07/24 09:49:22;;;;;;;9.65;4.32;;;23.30;61.20;;;;;;5075460;28;20122;-60
2022/07/24 09:52:12;;;;;;;6.90;4.40;;;23.30;60.50;;;;;;5074219;28;20058;-61
2022/07/24 09:54:40;;;;;;;6.28;3.95;;;23.30;60.60;;;;;;5054426;28;20094;-62
2022/07/24 09:57:22;;;;;;;6.63;3.80;;;23.30;60.60;;;;;;5055228;28;20045;-62
2022/07/24 09:59:48;;;;;;;6.80;3.95;;;23.40;60.70;;;;;;5054159;28;20071;-62
2022/07/24 10:02:15;;;;;;;6.75;3.90;;;23.40;60.70;;;;;;5055101;28;20396;-62
2022/07/24 10:04:41;;;;;;;7.20;3.97;;;23.40;60.80;;;;;;5060274;28;20082;-63
2022/07/24 10:07:09;;;;;;;6.35;3.50;;;23.40;60.70;;;;;;5072449;28;20037;-62
2022/07/24 10:09:35;;;;;;;7.70;4.27;;;23.40;60.70;;;;;;5073753;28;20066;-62
2022/07/24 10:12:00;;;;;;;7.07;4.05;;;23.40;60.60;;;;;;5073836;28;20036;-61
2022/07/24 10:14:26;;;;;;;6.13;3.50;;;23.40;60.70;;;;;;5056384;28;20122;-62
2022/07/24 10:17:01;;;;;;;4.90;3.70;;;23.50;60.80;;;;;;5073612;28;20037;-62
2022/07/24 10:19:28;;;;;;;6.57;3.35;;;23.50;60.70;;;;;;5041045;28;20048;-62
2022/07/24 10:21:54;;;;;;;5.20;3.63;;;23.50;60.80;;;;;;5055831;28;20045;-62
2022/07/24 10:24:44;;;;;;;7.65;3.85;;;23.50;60.80;;;;;;5074944;28;20040;-60
2022/07/24 10:27:31;;;;;;;5.30;3.33;;;23.60;60.80;;;;;;5073326;28;20392;-60
2022/07/24 10:30:16;;;;;;;8.00;3.53;;;23.60;60.60;;;;;;5072122;28;20045;-60
2022/07/24 10:32:43;;;;;;;7.15;3.28;;;23.60;60.50;;;;;;5074768;28;20051;-60
2022/07/24 10:35:24;;;;;;;4.72;3.05;;;23.60;60.20;;;;;;5055907;28;20567;-63
2022/07/24 10:37:50;;;;;;;4.82;3.03;;;23.60;60.00;;;;;;5073006;28;20052;-62
2022/07/24 10:40:39;;;;;;;6.13;3.20;;;23.60;59.80;;;;;;5073480;28;20049;-62
2022/07/24 10:43:05;;;;;;;6.32;3.33;;;23.60;59.70;;;;;;5038879;28;20450;-66
2022/07/24 10:45:31;;;;;;;4.15;2.70;;;23.60;59.60;;;;;;5072959;28;20032;-66
2022/07/24 10:47:57;;;;;;;6.82;2.80;;;23.60;59.50;;;;;;5073905;28;20040;-65
2022/07/24 10:50:22;;;;;;;4.75;2.85;;;23.70;59.60;;;;;;5072131;28;20052;-65
2022/07/24 10:52:48;;;;;;;7.05;3.17;;;23.70;59.60;;;;;;5073981;28;20044;-66
2022/07/24 10:55:29;;;;;;;4.07;2.72;;;23.60;59.60;;;;;;5074031;28;20411;-65
2022/07/24 10:58:03;;;;;;;5.85;2.80;;;23.70;59.80;;;;;;5073132;28;20059;-66
2022/07/24 11:00:36;;;;;;;6.20;2.95;;;23.70;59.80;;;;;;5073998;28;20036;-66
2022/07/24 11:03:05;;;;;;;5.28;3.30;;;23.70;60.00;;;;;;5071919;28;20521;-66
2022/07/24 11:05:31;;;;;;;;;;;23.70;60.10;;;;;;5072809;28;20044;-65
2022/07/24 11:08:16;;;;;;;3.90;2.65;;;23.70;60.30;;;;;;5073729;28;19921;-65
2022/07/24 11:10:48;;;;;;;3.80;2.50;;;23.70;60.20;;;;;;5073297;28;20052;-65
2022/07/24 11:13:32;;;;;;;6.00;2.85;;;23.70;60.20;;;;;;5072568;28;20051;-64
2022/07/24 11:16:25;;;;;;;5.88;2.90;;;23.70;60.30;;;;;;5073614;28;20045;-66
2022/07/24 11:18:53;;;;;;;3.10;2.50;;;23.70;60.40;;;;;;5071654;28;20136;-64
2022/07/24 11:21:35;;;;;;;6.20;3.25;;;23.70;60.40;;;;;;5073592;28;20036;-62
2022/07/24 11:26:51;;;;;;;4.82;2.90;;;23.70;60.60;;;;;;5073368;28;20086;-61
2022/07/24 11:29:17;;;;;;;5.93;3.00;;;23.70;60.60;;;;;;5073481;28;20044;-60
2022/07/24 11:31:49;;;;;;;4.78;2.28;;;23.70;60.60;;;;;;5072477;28;20139;-60
2022/07/24 11:34:15;;;;;;;6.45;2.70;;;23.70;60.60;;;;;;5073203;28;20048;-62
2022/07/24 11:36:42;;;;;;;5.05;2.40;;;23.70;60.90;;;;;;5071894;28;20041;-60
2022/07/24 11:39:08;;;;;;;4.77;2.57;;;23.70;61.00;;;;;;5070737;28;20075;-60
2022/07/24 11:41:45;;;;;;;4.25;2.45;;;23.70;61.00;;;;;;5073230;28;20084;-60
2022/07/24 11:44:10;;;;;;;4.70;2.60;;;23.70;61.10;;;;;;5073054;28;20493;-61
2022/07/24 11:46:37;;;;;;;5.38;2.55;;;23.70;61.10;;;;;;5072613;28;20094;-62
2022/07/24 11:49:04;;;;;;;4.97;2.47;;;23.70;61.20;;;;;;5072980;28;20059;-62
2022/07/24 11:51:29;;;;;;;3.67;2.50;;;23.80;61.40;;;;;;5071712;28;20086;-61
2022/07/24 11:53:56;;;;;;;4.07;2.33;;;23.70;61.30;;;;;;5072152;28;20056;-63
2022/07/24 11:56:21;;;;;;;6.25;3.88;;;23.80;61.40;;;;;;5073230;28;20051;-61
2022/07/24 11:58:47;;;;;;;3.65;2.08;;;23.80;61.50;;;;;;5071420;28;20045;-61
2022/07/24 12:01:22;;;;;;;4.95;2.28;;;23.80;61.50;;;;;;5070689;28;20048;-62
2022/07/24 12:03:51;;;;;;;9.02;4.47;;;23.80;61.50;;;;;;5069371;28;20404;-61
2022/07/24 12:06:18;;;;;;;10.07;4.28;;;23.80;61.60;;;;;;5072091;28;20123;-62
2022/07/24 12:08:44;;;;;;;9.25;3.85;;;23.80;61.70;;;;;;5087902;28;20049;-63
2022/07/24 12:11:10;;;;;;;13.30;4.10;;;23.80;61.70;;;;;;5072774;28;20408;-61
2022/07/24 12:13:40;;;;;;;10.57;4.65;;;23.80;61.60;;;;;;5072071;28;20045;-62
2022/07/24 12:16:05;;;;;;;11.50;4.85;;;23.80;61.70;;;;;;5071127;28;20061;-61
2022/07/24 12:18:31;;;;;;;9.25;4.88;;;23.80;61.80;;;;;;5071447;28;20384;-61
2022/07/24 12:21:01;;;;;;;7.60;4.00;;;23.80;61.90;;;;;;5071414;28;20403;-62
2022/07/24 12:23:29;;;;;;;7.43;4.15;;;23.80;62.00;;;;;;5071224;28;20048;-62
2022/07/24 12:25:54;;;;;;;10.32;4.65;;;23.80;62.00;;;;;;5071996;28;20064;-61
2022/07/24 12:28:20;;;;;;;8.70;4.53;;;23.80;62.10;;;;;;5071918;28;20044;-61
2022/07/24 12:30:46;;;;;;;9.85;4.05;;;23.80;62.10;;;;;;5070475;28;20048;-62
2022/07/24 12:33:18;;;;;;;9.25;3.78;;;23.80;62.10;;;;;;5072554;28;20048;-62
2022/07/24 12:35:59;;;;;;;11.98;4.00;;;23.90;62.20;;;;;;5071188;28;20567;-62
2022/07/24 12:38:35;;;;;;;9.05;3.92;;;23.90;62.20;;;;;;5072387;28;20044;-61
2022/07/24 12:41:01;;;;;;;9.52;4.28;;;23.90;62.20;;;;;;5072042;28;20032;-62
2022/07/24 12:43:28;;;;;;;8.20;4.05;;;23.90;62.30;;;;;;5071400;28;20096;-62
2022/07/24 12:46:07;;;;;;;7.57;3.70;;;23.90;62.20;;;;;;5070595;28;20106;-61